Timber Mountain, Nevada Weather observations

Data are for 10 minute period ending at time listed.
 Day   Time   Solar   Ave.   Ave.  Ave.  Vector  Max.   Baro.   Total    
  of    of     Rad.   Air    Rel.  Wind   Wind   Wind  Press.  Precip.   
Year   Day            Temp.  Hum.  Speed  Dir.   Gust                    
2015   (PST)  Kw/m2    F      %     mph   deg.    mph    mb.     in.     
-------------------------------------------------------------------------
 212    1:00   0.00   70.5    43    5.5   111    14.6   817.5    0.00 
 212    2:00   0.00   69.2    45    4.6    71    12.1   817.5    0.00 
 212    3:00   0.00   67.6    44    1.9    80     5.2   817.4    0.00 
 212    4:00   0.00   68.1    42    2.7    28     7.1   817.2    0.00 
 212    5:00   0.00   68.0    42    2.7   104     9.6   817.1    0.00 
 212    6:00   0.01   67.9    40    2.4   114     5.0   817.2    0.00 
 212    7:00   0.07   71.6    32    3.0   108     5.0   817.5    0.00 
 212    8:00   0.34   80.1    24    2.7   218     9.1   817.8    0.00 
 212    9:00   0.43   79.6    26    6.3   114    11.9   818.2    0.00 
 212   10:00   0.35   80.1    26    6.5   110    12.5   818.5    0.00 
 212   11:00   0.17   77.9    30    4.4   169    10.1   818.5    0.00 
 212   12:00   0.20   76.9    32    5.1   148    11.8   818.6    0.00 
 212   13:00   0.41   78.6    31    5.6   150    15.6   818.5    0.00 
 212   14:00   0.58   81.2    29    6.5   225    15.1   818.0    0.00 
 212   15:00   0.50   81.9    26    6.0   139    14.2   817.3    0.00 
 212   16:00   0.38   82.5    25    4.4    78    11.1   816.7    0.00 
 212   17:00   0.14   81.4    24    3.3    78    12.1   816.2    0.00 
 212   18:00   0.10   80.6    24    2.3   115     7.0   815.9    0.00 
 212   19:00   0.04   78.9    26    2.8   186     7.0   816.0    0.00 
 212   20:00   0.00   73.3    33    1.7    87     4.0   816.2    0.00 
 212   21:00   0.00   72.0    35    3.2   108     4.7   816.5    0.00 
 212   22:00   0.00   69.3    39    3.3    99     5.0   816.3    0.00 
 212   23:00   0.00   68.2    41    3.6   105     4.9   816.1    0.00 
 213    0:00   0.00   68.9    41    4.3   114     6.8   815.8    0.00 

Return to Timber Mountain graphs page.


Western Regional Climate Center,wrcc@dri.edu